Time;durP1;ratioP1;P1;durP2;ratioP2;P2;SDS_P1;SDS_P2;PMS_P1;PMS_P2;Temp;Humidity;BMP_temperature;BMP_pressure;BME280_temperature;BME280_humidity;BME280_pressure;Samples;Min_cycle;Max_cycle;Signal;HPM_P1;HPM_P2
2021/05/18 00:00:24;;;;;;;20.20;16.73;;;;;;;18.10;66.79;99291.79;1820336;77;22220;-50
2021/05/18 00:02:58;;;;;;;21.70;17.65;;;;;;;18.05;66.64;99281.41;1820861;77;22160;-61
2021/05/18 00:05:48;;;;;;;19.00;17.00;;;;;;;17.98;66.42;99278.70;1780410;80;21173;-61
2021/05/18 00:08:23;;;;;;;18.55;15.95;;;;;;;17.95;66.43;99281.55;1834695;77;22631;-61
2021/05/18 00:13:54;;;;;;;21.87;19.67;;;;;;;17.82;66.33;99283.63;1830048;77;28500;-61
2021/05/18 00:16:39;;;;;;;12.43;11.22;;;;;;;17.78;66.22;99294.53;1772742;79;21087;-61
2021/05/18 00:19:13;;;;;;;11.20;9.70;;;;;;;17.72;66.31;99275.81;1814184;77;22174;-60
2021/05/18 00:21:46;;;;;;;11.65;9.88;;;;;;;17.68;66.71;99273.79;1822666;77;22205;-61
2021/05/18 00:24:32;;;;;;;11.97;10.70;;;;;;;17.66;67.01;99269.52;1793038;80;21143;-50
2021/05/18 00:27:05;;;;;;;11.20;10.10;;;;;;;17.68;67.22;99255.66;1802008;77;22184;-50
2021/05/18 00:29:38;;;;;;;10.45;9.35;;;;;;;17.72;67.34;99262.97;1834758;77;22548;-50
2021/05/18 00:32:11;;;;;;;11.60;8.75;;;;;;;17.73;67.50;99258.90;1817802;77;22555;-50
2021/05/18 00:34:44;;;;;;;11.45;9.28;;;;;;;17.79;67.70;99257.66;1825242;77;22198;-61
2021/05/18 00:37:30;;;;;;;10.23;8.35;;;;;;;17.77;67.89;99252.45;1693221;83;21154;-61
2021/05/18 00:40:06;;;;;;;11.08;8.73;;;;;;;17.87;68.13;99242.58;1821492;77;22135;-61
2021/05/18 00:42:59;;;;;;;11.05;9.60;;;;;;;17.94;68.21;99234.58;1839227;77;20234;-62
2021/05/18 00:45:42;;;;;;;11.08;9.15;;;;;;;17.99;68.26;99231.19;1822573;77;22197;-50
2021/05/18 00:48:17;;;;;;;11.60;10.50;;;;;;;18.10;68.15;99235.38;1821373;77;22112;-61
2021/05/18 00:51:09;;;;;;;10.90;9.45;;;;;;;18.12;68.10;99236.15;1776023;80;21177;-61
2021/05/18 00:53:42;;;;;;;11.50;10.30;;;;;;;18.08;68.61;99233.78;1825175;77;22622;-61
2021/05/18 00:56:33;;;;;;;10.68;9.58;;;;;;;18.11;68.65;99228.23;1811175;77;22182;-61
2021/05/18 00:59:09;;;;;;;11.55;10.45;;;;;;;18.11;68.82;99228.23;1740310;81;21119;-61
2021/05/18 01:01:42;;;;;;;11.73;10.70;;;;;;;18.18;68.83;99221.59;1806916;77;22174;-50
2021/05/18 01:04:16;;;;;;;11.88;10.63;;;;;;;18.27;68.67;99230.34;1819775;77;22135;-50
2021/05/18 01:07:03;;;;;;;15.20;11.57;;;;;;;18.30;68.66;99225.31;1764066;80;21167;-62
2021/05/18 01:09:36;;;;;;;11.28;10.28;;;;;;;18.31;68.93;99220.83;1833798;77;22607;-52
2021/05/18 01:12:09;;;;;;;11.65;10.55;;;;;;;18.30;69.04;99218.66;1890208;74;22068;-51
2021/05/18 01:14:42;;;;;;;10.50;9.33;;;;;;;18.31;69.20;99212.83;1841754;77;22599;-59
2021/05/18 01:17:16;;;;;;;10.58;9.58;;;;;;;18.33;69.27;99225.09;1823895;77;22134;-60
2021/05/18 01:19:49;;;;;;;11.18;10.03;;;;;;;18.36;69.26;99224.05;1823842;77;22171;-60
2021/05/18 01:22:25;;;;;;;11.00;9.85;;;;;;;18.37;69.29;99225.77;1810562;77;22158;-61
2021/05/18 01:24:58;;;;;;;9.98;9.00;;;;;;;18.40;69.29;99218.91;1831303;77;22164;-50
2021/05/18 01:27:45;;;;;;;11.05;9.18;;;;;;;18.37;69.27;99231.09;1761751;81;21151;-51
2021/05/18 01:30:19;;;;;;;13.75;9.65;;;;;;;18.40;69.20;99226.41;1824299;77;22177;-50
2021/05/18 01:32:53;;;;;;;13.15;10.32;;;;;;;18.43;69.07;99241.37;1834755;77;22136;-50
2021/05/18 01:35:39;;;;;;;12.40;10.48;;;;;;;18.39;68.95;99250.50;1778253;80;21103;-61
2021/05/18 01:38:14;;;;;;;13.75;11.70;;;;;;;18.37;68.69;99246.59;1834773;77;22607;-51
2021/05/18 01:43:38;;;;;;;11.57;10.38;;;;;;;18.26;68.46;99247.27;1834900;77;22144;-50
2021/05/18 01:46:11;;;;;;;11.22;10.18;;;;;;;18.25;68.39;99244.22;1831362;77;22170;-60
2021/05/18 01:49:00;;;;;;;11.22;10.15;;;;;;;18.21;68.25;99242.70;1784652;80;21115;-51
2021/05/18 01:51:39;;;;;;;11.50;10.32;;;;;;;18.25;68.06;99242.89;1806936;77;20388;-51
2021/05/18 01:54:16;;;;;;;11.48;10.38;;;;;;;18.20;67.79;99249.47;1834727;77;22151;-51
2021/05/18 01:57:20;;;;;;;12.33;11.03;;;;;;;18.10;67.73;99262.50;1722291;81;21725;-61
2021/05/18 01:59:53;;;;;;;12.85;10.63;;;;;;;18.03;67.80;99255.34;1832636;77;22152;-51
2021/05/18 02:02:26;;;;;;;14.10;12.13;;;;;;;17.96;67.95;99244.20;1827406;77;22163;-50
2021/05/18 02:05:04;;;;;;;16.17;12.63;;;;;;;17.92;68.08;99238.67;1828429;77;22135;-61
2021/05/18 02:07:55;;;;;;;15.88;12.07;;;;;;;17.95;67.97;99241.61;1750644;81;21256;-60
2021/05/18 02:10:28;;;;;;;12.40;11.15;;;;;;;17.95;68.22;99233.63;1842873;77;22181;-50
2021/05/18 02:13:01;;;;;;;13.90;12.43;;;;;;;17.96;68.52;99231.34;1824814;77;22167;-51
2021/05/18 02:15:59;;;;;;;15.18;13.30;;;;;;;17.87;68.97;99239.92;1768931;80;21144;-51
2021/05/18 02:21:36;;;;;;;17.00;14.70;;;;;;;17.95;69.57;99229.17;1835536;77;22173;-51
2021/05/18 02:26:51;;;;;;;17.07;15.45;;;;;;;18.06;70.55;99227.20;1806051;77;22194;-61
2021/05/18 02:29:37;;;;;;;18.15;15.93;;;;;;;18.04;70.65;99226.44;1763711;81;21117;-51
2021/05/18 02:32:10;;;;;;;18.40;16.48;;;;;;;18.11;70.58;99217.13;1834782;77;22171;-51
2021/05/18 02:34:43;;;;;;;17.70;16.00;;;;;;;18.08;70.82;99216.48;1816328;77;22590;-51
2021/05/18 02:37:17;;;;;;;18.07;16.30;;;;;;;18.11;70.81;99218.46;1834790;77;22176;-51
2021/05/18 02:39:50;;;;;;;18.77;16.80;;;;;;;18.09;71.46;99219.03;1822331;77;22158;-51
2021/05/18 02:42:23;;;;;;;17.55;15.75;;;;;;;18.10;71.09;99219.91;1832209;77;22176;-51
2021/05/18 02:50:33;;;;;;;17.80;16.10;;;;;;;18.07;71.19;99228.08;1792823;80;21142;-62
2021/05/18 02:53:07;;;;;;;17.98;16.07;;;;;;;18.11;71.43;99226.45;1816217;77;22151;-51
2021/05/18 02:58:14;;;;;;;17.52;15.60;;;;;;;18.09;71.81;99228.84;1820351;77;22139;-51
2021/05/18 03:00:47;;;;;;;18.50;14.07;;;;;;;18.12;72.00;99222.84;1808748;77;22171;-61
2021/05/18 03:03:33;;;;;;;23.73;13.55;;;;;;;18.10;72.57;99227.40;1749357;81;21110;-63
2021/05/18 03:06:06;;;;;;;19.25;14.40;;;;;;;18.21;72.40;99227.21;1812710;77;22169;-51
2021/05/18 03:08:40;;;;;;;21.27;17.17;;;;;;;18.21;72.99;99222.73;1818338;77;22164;-52
2021/05/18 03:11:26;;;;;;;30.20;17.45;;;;;;;18.23;72.68;99222.65;1750094;80;21735;-62
2021/05/18 03:13:59;;;;;;;24.37;17.50;;;;;;;18.29;72.76;99234.25;1816700;77;22186;-61
2021/05/18 03:16:32;;;;;;;22.35;15.35;;;;;;;18.37;72.67;99237.75;1799624;77;22189;-62
2021/05/18 03:19:19;;;;;;;21.73;14.28;;;;;;;18.34;72.78;99240.61;1779360;80;21133;-53
2021/05/18 03:21:52;;;;;;;22.10;13.48;;;;;;;18.35;72.90;99240.98;1791980;77;22173;-62
2021/05/18 03:24:25;;;;;;;14.23;12.75;;;;;;;18.33;73.30;99244.22;1817414;77;22162;-52
2021/05/18 03:26:59;;;;;;;20.80;15.00;;;;;;;18.32;73.43;99238.52;1815268;77;22613;-51
2021/05/18 03:29:34;;;;;;;21.62;13.75;;;;;;;18.33;73.18;99244.22;1824535;77;22212;-52
2021/05/18 03:35:12;;;;;;;25.23;13.03;;;;;;;18.32;73.33;99241.18;1817233;77;22165;-61
2021/05/18 03:37:52;;;;;;;20.70;12.70;;;;;;;18.37;73.12;99247.08;1821341;77;22809;-51
2021/05/18 03:40:35;;;;;;;18.20;12.43;;;;;;;18.28;73.27;99236.53;1784360;80;21204;-62
2021/05/18 03:43:21;;;;;;;15.60;11.55;;;;;;;18.33;72.96;99242.40;1843039;77;22186;-61
2021/05/18 03:45:50;;;;;;;15.78;11.25;;;;;;;18.27;73.28;99250.31;1820042;77;22229;-58
2021/05/18 03:48:42;;;;;;;17.98;11.85;;;;;;;18.25;73.32;99248.70;1834732;77;22171;-60
2021/05/18 03:54:18;;;;;;;12.95;10.43;;;;;;;18.25;73.55;99262.02;1834764;77;22568;-52
2021/05/18 04:02:52;;;;;;;15.65;11.20;;;;;;;18.37;73.90;99251.91;1820002;77;22141;-60
2021/05/18 04:16:57;;;;;;;19.55;16.55;;;;;;;18.76;74.55;99245.98;1826264;77;22185;-61
2021/05/18 04:19:34;;;;;;;18.12;14.98;;;;;;;18.83;74.35;99244.14;1834705;77;22136;-61
2021/05/18 04:39:33;;;;;;;17.52;15.63;;;;;;;19.30;73.38;99234.47;1828716;77;22131;-52
2021/05/18 05:04:14;;;;;;;13.38;11.97;;;;;;;19.81;72.04;99211.48;1828005;77;22186;-63
2021/05/18 05:09:37;;;;;;;13.38;11.40;;;;;;;20.03;71.45;99214.38;1821896;77;22446;-52
2021/05/18 05:14:54;;;;;;;15.55;13.98;;;;;;;20.08;71.38;99223.89;1816708;77;27996;-52
2021/05/18 05:17:41;;;;;;;11.93;10.58;;;;;;;20.09;71.17;99231.78;1761740;80;21182;-64
2021/05/18 05:20:14;;;;;;;11.83;10.18;;;;;;;20.17;71.01;99220.58;1813541;77;22202;-52
2021/05/18 05:22:47;;;;;;;11.18;9.95;;;;;;;20.21;71.00;99224.73;1832459;77;22124;-52
2021/05/18 05:25:20;;;;;;;13.28;10.48;;;;;;;20.23;70.75;99221.48;1813551;77;22191;-52
2021/05/18 05:27:53;;;;;;;10.18;8.60;;;;;;;20.23;70.64;99223.28;1825871;77;22135;-52
2021/05/18 05:30:27;;;;;;;8.75;7.40;;;;;;;20.18;70.42;99219.11;1810826;77;22199;-61
2021/05/18 05:33:00;;;;;;;9.55;7.05;;;;;;;20.15;70.16;99206.47;1840039;77;22163;-62
2021/05/18 05:35:33;;;;;;;8.68;7.12;;;;;;;20.08;69.82;99208.73;1823551;77;22190;-63
2021/05/18 05:38:07;;;;;;;10.65;8.35;;;;;;;20.00;69.92;99204.41;1822385;77;22138;-53
2021/05/18 05:40:47;;;;;;;8.18;5.92;;;;;;;19.87;69.79;99218.58;1785654;80;21130;-64
2021/05/18 05:43:20;;;;;;;6.05;3.60;;;;;;;19.79;69.63;99226.26;1853098;77;22223;-53
2021/05/18 05:45:53;;;;;;;6.45;3.37;;;;;;;19.63;68.68;99245.64;1806111;77;22162;-65
2021/05/18 05:48:40;;;;;;;6.35;2.30;;;;;;;19.41;68.50;99259.96;1761975;81;21260;-67
2021/05/18 05:51:13;;;;;;;4.65;1.40;;;;;;;19.17;68.37;99241.11;1832528;77;22170;-54
2021/05/18 05:53:46;;;;;;;5.67;2.25;;;;;;;18.90;68.01;99233.08;1834693;77;22151;-66
2021/05/18 05:56:19;;;;;;;4.45;1.85;;;;;;;18.64;68.51;99242.27;1798643;77;22178;-53
2021/05/18 05:58:53;;;;;;;2.95;1.30;;;;;;;18.45;68.88;99254.58;1853241;77;22159;-53
2021/05/18 06:01:29;;;;;;;3.17;1.40;;;;;;;18.31;68.86;99233.68;1811583;77;22170;-53
2021/05/18 06:04:01;;;;;;;2.15;1.32;;;;;;;18.24;69.00;99227.02;1834694;77;22172;-62
2021/05/18 06:06:34;;;;;;;3.25;1.37;;;;;;;18.18;69.12;99236.72;1791162;77;22179;-62
2021/05/18 06:09:08;;;;;;;4.65;1.20;;;;;;;18.15;69.26;99264.38;1828868;77;22163;-58
2021/05/18 06:15:08;;;;;;;2.47;1.27;;;;;;;18.00;69.11;99221.41;1831965;77;22610;-54
2021/05/18 06:37:46;;;;;;;7.83;3.83;;;;;;;18.10;71.40;99263.34;1834763;77;22575;-55
2021/05/18 06:43:15;;;;;;;6.28;3.60;;;;;;;18.13;72.11;99246.30;1833847;77;22116;-65
2021/05/18 06:48:37;;;;;;;11.85;5.08;;;;;;;18.06;72.16;99241.84;1853107;77;22155;-54
2021/05/18 06:51:10;;;;;;;9.13;4.70;;;;;;;18.07;72.29;99228.92;1814815;77;22590;-53
2021/05/18 06:53:57;;;;;;;7.85;4.50;;;;;;;18.00;72.38;99216.09;1765113;81;21177;-63
2021/05/18 06:56:34;;;;;;;5.45;3.77;;;;;;;18.06;72.36;99213.05;1810834;77;22166;-53
2021/05/18 07:01:37;;;;;;;11.35;5.47;;;;;;;18.17;72.58;99194.58;1808323;77;22171;-53
2021/05/18 07:04:12;;;;;;;10.48;4.75;;;;;;;18.21;72.80;99198.76;1834774;77;22175;-62
2021/05/18 07:09:42;;;;;;;7.22;4.42;;;;;;;18.61;72.30;99179.84;1853108;77;22645;-62
2021/05/18 07:12:15;;;;;;;7.53;4.00;;;;;;;18.71;72.41;99170.30;1820252;77;22571;-53
2021/05/18 07:14:58;;;;;;;10.50;4.30;;;;;;;18.86;72.37;99167.09;1831513;77;22189;-53
2021/05/18 07:17:29;;;;;;;7.95;4.37;;;;;;;18.99;72.28;99157.37;1834764;77;22568;-53
2021/05/18 07:20:15;;;;;;;10.30;4.58;;;;;;;19.12;72.48;99157.89;1728469;82;21304;-54
2021/05/18 07:22:51;;;;;;;8.05;4.17;;;;;;;19.33;72.21;99144.90;1823323;77;22169;-61
2021/05/18 07:25:23;;;;;;;9.38;4.97;;;;;;;19.49;72.17;99138.48;1825728;77;22222;-53
2021/05/18 07:28:09;;;;;;;12.93;5.20;;;;;;;19.57;72.09;99130.81;1762062;80;21154;-55
2021/05/18 07:30:42;;;;;;;13.70;5.42;;;;;;;19.74;71.65;99129.63;1820752;77;22194;-53
2021/05/18 07:33:15;;;;;;;9.65;4.37;;;;;;;19.82;71.46;99121.93;1853105;77;22151;-53
2021/05/18 07:35:54;;;;;;;16.07;6.28;;;;;;;19.85;71.01;99131.55;1820110;77;22190;-61
2021/05/18 07:38:25;;;;;;;7.72;4.03;;;;;;;19.83;70.87;99132.14;1834759;77;22183;-60
2021/05/18 07:41:11;;;;;;;5.00;2.92;;;;;;;19.75;70.57;99136.20;1773383;80;21474;-62
2021/05/18 07:43:44;;;;;;;4.47;3.25;;;;;;;19.72;70.35;99121.73;1834761;77;22187;-62
2021/05/18 07:46:19;;;;;;;5.45;3.25;;;;;;;19.67;70.34;99128.34;1813668;77;22594;-53
2021/05/18 08:05:43;;;;;;;6.15;3.30;;;;;;;19.85;69.64;99140.41;1821901;77;22681;-61
2021/05/18 08:08:28;;;;;;;4.87;3.30;;;;;;;19.84;69.23;99152.54;1761779;80;21087;-62
2021/05/18 08:11:02;;;;;;;6.80;3.50;;;;;;;19.86;68.85;99146.61;1817254;77;22194;-53
2021/05/18 08:13:36;;;;;;;8.48;3.60;;;;;;;19.79;68.74;99150.17;1821546;77;22139;-53
2021/05/18 09:48:46;;;;;;;6.75;3.22;;;;;;;22.32;61.19;99073.67;1769586;80;21173;-66
2021/05/18 10:14:35;;;;;;;5.65;3.30;;;;;;;22.17;61.45;99069.09;1822821;77;22182;-53
2021/05/18 10:34:56;;;;;;;6.87;3.10;;;;;;;24.44;55.65;99014.28;1790669;77;22186;-53
2021/05/18 10:37:47;;;;;;;4.58;3.55;;;;;;;24.64;54.13;99014.29;1834699;77;22152;-65
2021/05/18 10:40:35;;;;;;;6.08;3.12;;;;;;;24.60;53.72;99019.09;1728493;82;21188;-66
2021/05/18 10:43:24;;;;;;;7.17;3.70;;;;;;;24.69;54.16;99015.19;1831284;77;22150;-54
2021/05/18 10:46:09;;;;;;;6.33;4.10;;;;;;;24.85;54.42;99020.02;1808300;77;22558;-54
2021/05/18 10:49:06;;;;;;;6.50;3.85;;;;;;;25.05;55.32;99010.05;1762059;81;21137;-54
2021/05/18 10:51:52;;;;;;;5.25;2.90;;;;;;;25.45;54.56;99017.03;1795043;77;22194;-54
2021/05/18 10:54:31;;;;;;;5.28;3.00;;;;;;;25.67;52.47;98996.94;1819094;77;28403;-54
2021/05/18 10:57:20;;;;;;;4.65;3.10;;;;;;;25.76;51.31;99000.59;1762120;81;21154;-54
2021/05/18 10:59:57;;;;;;;3.05;2.33;;;;;;;25.79;49.33;98985.95;1832616;77;22180;-54
2021/05/18 11:02:38;;;;;;;4.75;2.65;;;;;;;25.86;50.24;98980.31;1831611;77;22567;-65
2021/05/18 11:05:13;;;;;;;3.60;3.05;;;;;;;26.06;50.02;98976.12;1828597;77;22174;-61
2021/05/18 11:07:47;;;;;;;4.65;3.35;;;;;;;26.11;49.53;98980.55;1834634;77;22168;-65
2021/05/18 11:10:20;;;;;;;4.12;3.00;;;;;;;26.19;49.16;98979.84;1826502;77;22599;-65
2021/05/18 11:12:54;;;;;;;4.53;2.80;;;;;;;26.20;47.43;98980.19;1834836;77;22175;-65
2021/05/18 11:15:40;;;;;;;4.03;2.77;;;;;;;26.06;46.79;98976.12;1728361;82;21601;-55
2021/05/18 11:18:12;;;;;;;4.08;2.80;;;;;;;26.04;47.73;98973.59;1834750;77;22200;-66
2021/05/18 11:26:12;;;;;;;5.10;2.30;;;;;;;26.05;46.98;98966.37;1698304;84;21195;-65
2021/05/18 11:28:47;;;;;;;3.60;2.50;;;;;;;26.22;47.49;98957.96;1834734;77;22156;-64
2021/05/18 11:31:23;;;;;;;4.70;2.90;;;;;;;26.39;47.73;98957.08;1800161;77;22206;-64
2021/05/18 11:34:09;;;;;;;3.30;2.55;;;;;;;26.54;47.34;98957.87;1762152;81;21141;-67
2021/05/18 11:36:42;;;;;;;3.12;2.47;;;;;;;26.90;47.22;98948.37;1807987;77;22190;-54
2021/05/18 11:39:16;;;;;;;2.85;2.40;;;;;;;27.27;46.41;98942.33;1834764;77;22451;-54
2021/05/18 11:41:52;;;;;;;3.72;2.35;;;;;;;27.36;45.26;98931.04;1792418;77;22178;-65
2021/05/18 11:44:30;;;;;;;3.87;2.67;;;;;;;27.25;44.66;98938.42;1793712;77;28032;-64
2021/05/18 11:47:03;;;;;;;3.72;2.55;;;;;;;27.16;44.89;98947.48;1820952;77;22169;-54
2021/05/18 11:49:36;;;;;;;3.22;2.60;;;;;;;27.07;44.86;98936.32;1829285;77;22136;-65
2021/05/18 11:52:09;;;;;;;3.25;2.20;;;;;;;26.98;45.70;98944.38;1910409;74;22140;-64
2021/05/18 11:54:42;;;;;;;4.15;2.17;;;;;;;26.93;44.29;98934.55;1834752;77;22164;-65
2021/05/18 11:57:28;;;;;;;3.00;2.25;;;;;;;26.84;43.61;98931.45;1699391;84;21170;-65
2021/05/18 12:00:02;;;;;;;2.83;1.92;;;;;;;27.01;44.56;98924.30;1815719;77;22158;-53
2021/05/18 12:02:35;;;;;;;2.67;1.90;;;;;;;27.11;44.04;98921.50;1834718;77;22160;-54
2021/05/18 12:05:09;;;;;;;2.95;2.00;;;;;;;27.22;44.66;98937.91;1847492;77;22189;-65
2021/05/18 12:07:42;;;;;;;3.42;1.85;;;;;;;27.04;43.76;98931.24;1831945;77;22174;-53
2021/05/18 12:10:28;;;;;;;2.77;2.20;;;;;;;26.87;43.65;98923.05;1827477;77;22618;-53
2021/05/18 12:13:01;;;;;;;3.40;2.05;;;;;;;26.51;45.00;98922.60;1834754;77;22147;-65
2021/05/18 12:15:34;;;;;;;4.83;1.98;;;;;;;26.21;45.18;98922.56;1810270;77;22197;-53
2021/05/18 12:18:08;;;;;;;4.40;2.20;;;;;;;25.79;45.50;98930.72;1834756;77;22180;-54
2021/05/18 12:20:41;;;;;;;3.47;2.10;;;;;;;25.56;45.98;98932.99;1821842;77;22190;-65
2021/05/18 12:23:15;;;;;;;4.53;2.00;;;;;;;25.21;46.71;98926.84;1802535;77;22181;-65
2021/05/18 12:25:48;;;;;;;4.65;2.17;;;;;;;24.90;47.96;98933.84;1807024;77;22602;-65
2021/05/18 12:28:33;;;;;;;3.15;2.33;;;;;;;24.67;48.35;98942.72;1756754;81;21764;-66
2021/05/18 12:31:07;;;;;;;4.70;2.58;;;;;;;24.63;49.68;98927.86;1816115;77;22170;-53
2021/05/18 12:33:40;;;;;;;2.50;2.10;;;;;;;24.86;49.82;98924.84;1818445;77;22127;-65
2021/05/18 12:36:13;;;;;;;2.98;2.20;;;;;;;25.07;49.04;98914.72;1814493;77;22186;-53
2021/05/18 12:39:16;;;;;;;2.92;1.95;;;;;;;25.16;48.84;98908.94;1819157;77;28389;-64
2021/05/18 12:42:03;;;;;;;4.00;2.10;;;;;;;25.12;48.77;98908.88;1798776;77;22571;-53
2021/05/18 12:44:59;;;;;;;2.85;1.30;;;;;;;25.05;49.67;98915.84;1834673;77;22622;-53
2021/05/18 12:47:46;;;;;;;4.25;1.00;;;;;;;25.01;48.83;98919.83;1699364;84;21221;-64
2021/05/18 12:50:20;;;;;;;0.95;0.50;;;;;;;24.99;47.11;98906.53;1826638;77;22186;-64
2021/05/18 12:52:53;;;;;;;2.47;0.80;;;;;;;24.95;45.69;98909.17;1828775;77;22143;-64
2021/05/18 12:55:30;;;;;;;1.22;0.68;;;;;;;24.95;46.25;98919.94;1821004;77;22573;-64
2021/05/18 12:58:32;;;;;;;1.12;0.70;;;;;;;25.05;44.71;98926.62;1765120;81;21133;-63
2021/05/18 13:01:10;;;;;;;4.10;3.40;;;;;;;25.21;42.85;98940.30;1813067;77;22571;-52
2021/05/18 13:03:49;;;;;;;6.08;3.10;;;;;;;25.07;47.42;98948.37;1853171;77;22170;-52
2021/05/18 13:06:26;;;;;;;2.90;1.15;;;;;;;24.60;47.57;98946.98;1830336;77;22178;-52
2021/05/18 13:09:25;;;;;;;3.72;1.12;;;;;;;23.98;44.09;98923.97;1793509;80;21693;-52
2021/05/18 13:12:11;;;;;;;2.87;1.10;;;;;;;23.03;45.36;98931.44;1784379;77;28040;-64
2021/05/18 13:15:09;;;;;;;4.90;1.27;;;;;;;22.71;47.08;98930.57;1852740;77;22562;-64
2021/05/18 13:17:59;;;;;;;4.25;1.20;;;;;;;22.74;47.54;98937.48;1853116;77;22143;-52
2021/05/18 13:20:42;;;;;;;2.35;0.62;;;;;;;22.83;46.71;98946.08;1826207;77;22198;-65
2021/05/18 13:28:46;;;;;;;1.27;0.50;;;;;;;22.87;45.90;98961.44;1853120;77;22139;-53
2021/05/18 13:31:33;;;;;;;1.05;0.70;;;;;;;22.83;45.39;98956.81;1774051;78;21285;-53
2021/05/18 13:34:07;;;;;;;7.72;2.37;;;;;;;22.56;46.53;98958.69;1834759;77;22152;-62
2021/05/18 13:36:40;;;;;;;9.83;2.50;;;;;;;22.41;47.71;98975.08;1807843;77;22198;-54
2021/05/18 13:39:16;;;;;;;6.72;2.02;;;;;;;22.21;49.14;98986.61;1837440;77;22162;-54
2021/05/18 13:42:02;;;;;;;2.87;0.95;;;;;;;21.92;50.84;99002.77;1774808;79;21617;-64
2021/05/18 13:44:36;;;;;;;3.22;1.17;;;;;;;21.71;51.65;99002.69;1841654;77;22171;-62
2021/05/18 13:47:09;;;;;;;4.90;1.50;;;;;;;21.37;52.92;99000.02;1906517;74;22592;-62
2021/05/18 13:49:54;;;;;;;2.50;1.10;;;;;;;20.78;54.96;99009.44;1859262;77;21082;-64
2021/05/18 13:52:27;;;;;;;3.87;1.40;;;;;;;20.80;54.90;98986.11;1834844;77;22552;-53
2021/05/18 13:55:00;;;;;;;4.30;0.85;;;;;;;20.72;55.01;98994.33;1830954;77;22599;-53
2021/05/18 13:57:34;;;;;;;3.33;0.88;;;;;;;20.68;55.50;98992.36;1830915;77;22626;-53
2021/05/18 14:00:10;;;;;;;3.72;1.27;;;;;;;;;;1829522;77;22614;-62
2021/05/18 14:02:44;;;;;;;3.00;1.02;;;;;;;20.69;56.63;99005.26;1833556;77;22551;-62
2021/05/18 14:05:20;;;;;;;1.85;0.82;;;;;;;20.72;56.85;99002.35;1827051;77;22190;-62
2021/05/18 14:08:34;;;;;;;1.90;0.93;;;;;;;20.78;56.06;99007.23;1831121;77;22127;-62
2021/05/18 14:11:14;;;;;;;1.57;0.80;;;;;;;20.99;56.65;99007.89;1815732;77;22182;-62
2021/05/18 14:13:50;;;;;;;1.87;0.88;;;;;;;21.15;56.78;99012.42;1853093;77;22128;-53
2021/05/18 14:16:24;;;;;;;4.92;0.80;;;;;;;21.25;56.57;99009.87;1810250;77;22160;-62
2021/05/18 14:18:57;;;;;;;4.37;0.90;;;;;;;21.28;56.68;99000.73;1825359;77;22186;-61
2021/05/18 14:21:30;;;;;;;2.12;1.10;;;;;;;21.25;56.49;99005.36;1824574;77;22178;-62
2021/05/18 14:24:18;;;;;;;3.90;1.00;;;;;;;21.19;56.53;98999.18;1834775;77;22179;-53
2021/05/18 14:26:59;;;;;;;2.85;1.05;;;;;;;21.10;57.20;99002.57;1696448;83;21170;-62
2021/05/18 14:29:32;;;;;;;1.50;0.90;;;;;;;20.94;56.25;98993.05;1853086;77;22175;-62
2021/05/18 14:32:05;;;;;;;2.27;1.37;;;;;;;20.87;56.36;98992.33;1820446;77;22197;-53
2021/05/18 14:34:38;;;;;;;3.08;1.10;;;;;;;20.85;56.54;98987.58;1834104;77;22179;-61
2021/05/18 14:37:12;;;;;;;3.75;1.07;;;;;;;20.84;56.68;98986.71;1817201;77;22187;-62
2021/05/18 14:40:08;;;;;;;2.50;1.02;;;;;;;20.77;56.80;98985.01;1818293;78;22184;-53
2021/05/18 14:43:14;;;;;;;2.62;0.90;;;;;;;20.77;57.60;98983.67;1834830;77;22203;-61
2021/05/18 14:45:38;;;;;;;1.70;0.80;;;;;;;20.88;57.38;98977.98;1817870;77;22193;-53
2021/05/18 14:56:23;;;;;;;2.33;0.80;;;;;;;21.67;58.21;98970.44;1829840;77;22237;-55
2021/05/18 14:58:57;;;;;;;3.17;1.07;;;;;;;21.56;57.59;98975.30;1834732;77;22611;-53
2021/05/18 15:01:43;;;;;;;3.42;1.12;;;;;;;21.43;58.77;98977.25;1767121;80;21147;-55
2021/05/18 15:04:23;;;;;;;3.45;0.80;;;;;;;22.34;56.17;98970.34;1852043;77;22478;-53
2021/05/18 15:06:57;;;;;;;3.65;1.30;;;;;;;21.62;57.37;98964.13;1804915;77;22190;-64
2021/05/18 15:09:30;;;;;;;5.42;1.90;;;;;;;22.13;56.18;98956.45;1853089;77;22151;-53
2021/05/18 15:12:17;;;;;;;3.52;1.67;;;;;;;22.22;56.48;98960.17;1791615;80;21131;-53
2021/05/18 15:14:50;;;;;;;5.60;2.15;;;;;;;22.22;55.45;98965.06;1851257;77;22167;-53
2021/05/18 15:17:23;;;;;;;2.55;1.15;;;;;;;22.22;55.01;98964.19;1834082;77;22140;-52
2021/05/18 15:20:12;;;;;;;3.40;1.07;;;;;;;22.07;55.49;98970.34;1728232;82;21122;-63
2021/05/18 15:22:45;;;;;;;6.22;1.60;;;;;;;21.97;55.85;98967.58;1810561;77;28030;-55
2021/05/18 15:25:18;;;;;;;8.83;1.80;;;;;;;21.64;58.73;99013.05;1826277;77;22482;-67
2021/05/18 15:27:52;;;;;;;4.45;0.80;;;;;;;21.06;54.34;98992.58;1821655;77;22143;-64
2021/05/18 15:30:25;;;;;;;3.75;0.80;;;;;;;20.52;55.41;98965.13;1843574;77;22213;-63
2021/05/18 15:32:58;;;;;;;1.47;0.42;;;;;;;20.24;55.04;98963.19;1828502;77;22215;-62
2021/05/18 15:35:33;;;;;;;1.75;0.55;;;;;;;20.08;55.17;98972.37;1823848;77;22638;-53
2021/05/18 15:38:07;;;;;;;1.37;0.68;;;;;;;20.00;56.74;98970.25;1834749;77;22195;-53
2021/05/18 15:40:44;;;;;;;3.35;0.85;;;;;;;19.94;57.50;98972.03;1821751;77;22634;-62
2021/05/18 15:43:17;;;;;;;1.90;0.85;;;;;;;19.92;57.96;98972.63;1830251;77;22147;-63
2021/05/18 15:45:50;;;;;;;4.15;1.45;;;;;;;19.91;59.15;98964.25;1819247;77;22541;-62
2021/05/18 15:48:37;;;;;;;13.22;2.25;;;;;;;19.89;59.67;98958.16;1761894;80;21100;-62
2021/05/18 15:51:11;;;;;;;18.80;3.22;;;;;;;19.95;60.68;98955.05;1815023;77;22186;-57
2021/05/18 15:53:44;;;;;;;12.10;2.65;;;;;;;19.95;60.77;98955.05;1819756;77;22613;-53
2021/05/18 15:56:19;;;;;;;12.53;2.33;;;;;;;19.99;60.87;98959.70;1831623;77;22190;-62
2021/05/18 15:58:52;;;;;;;13.22;3.05;;;;;;;20.02;61.16;98946.95;1829555;77;22172;-61
2021/05/18 16:01:25;;;;;;;21.87;5.22;;;;;;;20.05;61.37;98949.39;1804199;77;22217;-63
2021/05/18 16:03:58;;;;;;;12.75;3.45;;;;;;;20.10;61.56;98960.22;1824881;77;22797;-63
2021/05/18 16:06:45;;;;;;;8.75;2.15;;;;;;;20.06;61.37;98979.14;1768796;80;21227;-65
2021/05/18 16:09:18;;;;;;;4.28;1.30;;;;;;;20.04;61.22;98975.73;1831920;77;22645;-53
2021/05/18 16:11:52;;;;;;;2.15;1.00;;;;;;;19.95;61.31;98965.73;1798030;77;22207;-63
2021/05/18 16:14:25;;;;;;;1.95;0.82;;;;;;;19.87;61.18;98962.77;1835448;77;22678;-53
2021/05/18 16:16:58;;;;;;;1.55;0.78;;;;;;;19.80;61.02;98964.17;1803154;77;22721;-63
2021/05/18 16:19:31;;;;;;;1.98;0.60;;;;;;;19.79;61.04;98955.30;1806759;77;22199;-54
2021/05/18 16:22:19;;;;;;;6.10;1.30;;;;;;;19.75;61.08;98962.69;1669981;86;21201;-53
2021/05/18 16:24:52;;;;;;;4.30;1.50;;;;;;;19.83;61.07;98955.45;1811460;77;22215;-63
2021/05/18 16:27:25;;;;;;;3.98;1.20;;;;;;;19.83;61.08;98959.45;1829432;77;22157;-63
2021/05/18 16:30:13;;;;;;;1.60;0.68;;;;;;;19.76;60.76;98959.06;1785612;80;21200;-63
2021/05/18 16:32:46;;;;;;;1.42;0.50;;;;;;;19.80;60.66;98958.84;1818818;77;22641;-53
2021/05/18 16:35:19;;;;;;;0.90;0.50;;;;;;;19.78;60.54;98970.95;1799230;77;22653;-53
2021/05/18 16:38:06;;;;;;;0.80;0.50;;;;;;;19.71;60.30;98982.56;1753818;80;21150;-53
2021/05/18 16:40:39;;;;;;;1.22;0.55;;;;;;;19.67;60.31;98984.22;1818422;77;22720;-62
2021/05/18 16:43:13;;;;;;;1.27;0.50;;;;;;;19.61;60.12;98989.53;1833138;77;22651;-53
2021/05/18 16:45:46;;;;;;;1.65;0.50;;;;;;;19.50;59.65;98986.77;1816421;77;22206;-53
2021/05/18 16:48:20;;;;;;;2.08;0.30;;;;;;;19.49;59.17;98987.73;1830160;77;22139;-53
2021/05/18 16:51:06;;;;;;;5.10;1.00;;;;;;;19.27;57.76;98979.45;1760965;80;21209;-52
2021/05/18 16:53:41;;;;;;;1.80;0.60;;;;;;;19.22;58.35;98980.25;1827892;77;22194;-52
2021/05/18 16:56:14;;;;;;;1.00;0.40;;;;;;;19.17;58.81;98979.75;1830939;77;22201;-52
2021/05/18 16:58:50;;;;;;;1.52;0.50;;;;;;;19.12;58.72;98981.39;1826122;77;22198;-53
2021/05/18 17:01:35;;;;;;;2.02;0.47;;;;;;;19.04;58.88;98985.56;1752383;80;21173;-62
2021/05/18 17:04:08;;;;;;;1.65;0.60;;;;;;;19.02;59.20;98981.19;1831843;77;22169;-62
2021/05/18 17:06:42;;;;;;;1.60;0.60;;;;;;;19.03;59.08;98994.02;1824401;77;22197;-62
2021/05/18 17:09:15;;;;;;;1.70;0.42;;;;;;;19.04;58.23;98983.73;1819775;77;22198;-53